Minerva Zenia — SYNB — position and weather

sailwx.info

Track history (hours):
 
Tides and Currents Weather Stations Pressure Air Temp Water Temp Dewpoint Dewpoint Depression Visibility Wind Speed Wind Dir Waves Ship Positions

Minerva Zenia

Last reported at 2016-May-25 20:32 UTC. Time now 2016-May-30 20:23 UTC.
Position N 16°47' W 061°06'.

Length 248 m; draft 9.9 m.

Type: Ship. MMSI: 240014000.

Date/timePositionNaut miles runAvg speedWind from/ knotsBaromVisibWave heightAir tempDewpointWater temp
2016-May-25 20:32N 16°47' W 061°06'1212.6
2016-May-25 19:33N 16°43' W 061°18'1212.5
2016-May-25 18:33N 16°39' W 061°31'1212.5
2016-May-25 17:33N 16°35' W 061°43'1312.8
2016-May-25 16:33N 16°31' W 061°56'1212.0
2016-May-25 15:33N 16°27' W 062°08'1212.3
2016-May-25 14:33N 16°23' W 062°20'1912.4
2016-May-25 13:03N 16°17' W 062°38'712.3
2016-May-25 12:28N 16°15' W 062°45'  
Track history (hours):
 
Tides and Currents Weather Stations Pressure Air Temp Water Temp Dewpoint Dewpoint Depression Visibility Wind Speed Wind Dir Waves Ship Positions

Minerva Zenia

Last reported at 2016-May-25 20:32 UTC. Time now 2016-May-30 20:23 UTC.
Position N 16°47' W 061°06'.

Length 248 m; draft 9.9 m.

Type: Ship. MMSI: 240014000.

Date/timePositionNaut miles runAvg speedWind from/ knotsBaromVisibWave heightAir tempDewpointWater temp
2016-May-25 20:32N 16°47' W 061°06'1212.6
2016-May-25 19:33N 16°43' W 061°18'1212.5
2016-May-25 18:33N 16°39' W 061°31'1212.5
2016-May-25 17:33N 16°35' W 061°43'1312.8
2016-May-25 16:33N 16°31' W 061°56'1212.0
2016-May-25 15:33N 16°27' W 062°08'1212.3
2016-May-25 14:33N 16°23' W 062°20'1912.4
2016-May-25 13:03N 16°17' W 062°38'712.3
2016-May-25 12:28N 16°15' W 062°45'  

Dump ship's entire track history